createdAt,value
2022-11-22T00:00:41.926Z,23.38
2022-11-22T00:03:08.459Z,23.80
2022-11-22T00:05:34.827Z,19.48
2022-11-22T00:08:01.128Z,25.05
2022-11-22T00:10:27.489Z,24.75
2022-11-22T00:12:54.214Z,32.03
2022-11-22T00:15:20.560Z,31.73
2022-11-22T00:17:46.923Z,23.67
2022-11-22T00:20:14.198Z,29.27
2022-11-22T00:22:44.534Z,24.15
2022-11-22T00:25:11.802Z,22.42
2022-11-22T00:27:38.129Z,24.77
2022-11-22T00:30:05.000Z,33.70
2022-11-22T00:32:31.323Z,28.88
2022-11-22T00:34:57.709Z,33.83
2022-11-22T00:37:24.012Z,21.67
2022-11-22T00:39:50.297Z,30.77
2022-11-22T00:42:16.630Z,47.78
2022-11-22T00:44:42.996Z,29.42
2022-11-22T00:47:09.308Z,29.30
2022-11-22T00:49:35.661Z,27.27
2022-11-22T00:52:01.959Z,36.45
2022-11-22T00:54:28.306Z,29.50
2022-11-22T00:56:54.611Z,73.60
2022-11-22T00:59:20.969Z,26.15
2022-11-22T01:01:47.345Z,31.05
2022-11-22T01:04:13.755Z,27.65
2022-11-22T01:06:40.126Z,24.40
2022-11-22T01:09:06.496Z,28.00
2022-11-22T01:11:32.925Z,25.77
2022-11-22T01:14:00.538Z,24.30
2022-11-22T01:16:26.937Z,27.83
2022-11-22T01:18:53.268Z,27.05
2022-11-22T01:21:19.570Z,26.00
2022-11-22T01:23:45.908Z,25.85
2022-11-22T01:26:12.286Z,20.73
2022-11-22T01:28:38.644Z,20.83
2022-11-22T01:31:04.957Z,24.98
2022-11-22T01:33:31.302Z,22.05
2022-11-22T01:35:58.367Z,22.83
2022-11-22T01:38:24.787Z,24.25
2022-11-22T01:40:51.071Z,23.52
2022-11-22T01:43:22.133Z,23.17
2022-11-22T01:45:58.253Z,21.33
2022-11-22T01:48:34.218Z,20.85
2022-11-22T01:51:10.245Z,14.80
2022-11-22T01:53:38.515Z,14.15
2022-11-22T01:56:07.508Z,14.27
2022-11-22T01:58:34.826Z,17.38
2022-11-22T02:01:01.622Z,14.40
2022-11-22T02:03:28.989Z,14.50
2022-11-22T02:05:56.220Z,12.88
2022-11-22T02:08:28.766Z,14.32
2022-11-22T02:10:56.246Z,17.25
2022-11-22T02:13:23.425Z,15.10
2022-11-22T02:15:51.314Z,14.82
2022-11-22T02:18:17.790Z,15.23
2022-11-22T02:20:44.600Z,19.08
2022-11-22T02:23:31.534Z,18.23
2022-11-22T02:25:59.143Z,17.95
2022-11-22T02:28:26.484Z,14.68
2022-11-22T02:30:52.877Z,16.67
2022-11-22T02:33:19.372Z,20.23
2022-11-22T02:35:45.724Z,15.70
2022-11-22T02:38:16.988Z,17.90
2022-11-22T02:40:53.172Z,17.17
2022-11-22T02:43:25.238Z,17.80
2022-11-22T02:45:51.593Z,21.70
2022-11-22T02:48:18.511Z,20.60
2022-11-22T02:50:45.595Z,19.73
2022-11-22T02:53:12.488Z,22.52
2022-11-22T02:55:39.076Z,22.00
2022-11-22T02:58:05.885Z,22.00
2022-11-22T03:00:35.793Z,24.33
2022-11-22T03:03:02.171Z,25.48
2022-11-22T03:05:28.484Z,25.33
2022-11-22T03:07:54.866Z,26.10
2022-11-22T03:10:21.250Z,26.92
2022-11-22T03:12:47.605Z,30.65
2022-11-22T03:15:13.975Z,28.25
2022-11-22T03:17:40.304Z,29.77
2022-11-22T03:20:06.962Z,31.88
2022-11-22T03:22:33.581Z,32.85
2022-11-22T03:24:59.923Z,31.23
2022-11-22T03:27:26.283Z,32.30
2022-11-22T03:29:52.613Z,29.73
2022-11-22T03:32:18.891Z,30.23
2022-11-22T03:34:45.183Z,31.85
2022-11-22T03:37:11.550Z,32.20
2022-11-22T03:39:37.876Z,28.95
2022-11-22T03:42:04.291Z,27.27
2022-11-22T03:44:30.580Z,28.77
2022-11-22T03:46:56.907Z,29.55
2022-11-22T03:49:23.222Z,27.85
2022-11-22T03:51:49.544Z,28.92
2022-11-22T03:54:15.890Z,23.48
2022-11-22T03:56:42.225Z,29.67
2022-11-22T03:59:08.563Z,29.25
2022-11-22T04:01:34.968Z,28.13
2022-11-22T04:04:01.328Z,26.95
2022-11-22T04:06:27.665Z,26.50
2022-11-22T04:08:53.982Z,30.52
2022-11-22T04:11:20.286Z,25.75
2022-11-22T04:14:05.385Z,28.45
2022-11-22T04:16:31.703Z,32.13
2022-11-22T04:18:58.016Z,28.30
2022-11-22T04:21:36.700Z,32.60
2022-11-22T04:24:22.807Z,31.98
2022-11-22T04:26:49.467Z,33.38
2022-11-22T04:29:16.141Z,31.25
2022-11-22T04:32:01.205Z,32.88
2022-11-22T04:34:27.506Z,32.97
2022-11-22T04:36:53.935Z,30.38
2022-11-22T04:39:20.306Z,34.88
2022-11-22T04:41:46.826Z,31.05
2022-11-22T04:44:31.847Z,30.50
2022-11-22T04:46:58.135Z,32.63
2022-11-22T04:49:24.467Z,30.55
2022-11-22T04:52:09.509Z,32.67
2022-11-22T04:54:35.834Z,30.58
2022-11-22T04:57:02.227Z,34.15
2022-11-22T04:59:28.875Z,30.33
2022-11-22T05:01:55.403Z,31.60
2022-11-22T05:04:21.715Z,35.47
2022-11-22T05:06:48.033Z,30.88
2022-11-22T05:09:15.067Z,32.00
2022-11-22T05:11:41.338Z,39.33
2022-11-22T05:14:08.916Z,30.50
2022-11-22T05:16:35.359Z,44.28
2022-11-22T05:19:01.679Z,33.17
2022-11-22T05:21:28.599Z,31.73
2022-11-22T05:23:55.520Z,29.52
2022-11-22T05:26:21.870Z,33.55
2022-11-22T05:28:48.320Z,29.50
2022-11-22T05:31:16.763Z,27.67
2022-11-22T05:33:44.475Z,28.23
2022-11-22T05:36:11.262Z,29.55
2022-11-22T05:38:37.868Z,30.27
2022-11-22T05:41:11.426Z,31.92
2022-11-22T05:43:37.887Z,33.45
2022-11-22T05:46:08.930Z,30.52
2022-11-22T05:48:35.664Z,27.45
2022-11-22T05:51:06.172Z,29.45
2022-11-22T05:53:32.594Z,25.85
2022-11-22T05:56:03.309Z,25.85
2022-11-22T05:58:29.594Z,24.90
2022-11-22T06:00:55.942Z,31.35
2022-11-22T06:03:22.333Z,27.10
2022-11-22T06:05:52.268Z,26.35
2022-11-22T06:08:18.547Z,25.33
2022-11-22T06:10:44.908Z,28.52
2022-11-22T06:13:11.256Z,29.30
2022-11-22T06:15:37.621Z,26.33
2022-11-22T06:18:04.639Z,29.63
2022-11-22T06:20:30.976Z,25.23
2022-11-22T06:23:00.309Z,21.80
2022-11-22T06:25:27.125Z,20.42
2022-11-22T06:27:53.564Z,22.38
2022-11-22T06:30:19.991Z,26.10
2022-11-22T06:32:46.308Z,19.90
2022-11-22T06:35:12.651Z,21.92
2022-11-22T06:37:39.002Z,20.80
2022-11-22T06:40:07.247Z,27.17
2022-11-22T06:42:33.613Z,18.02
2022-11-22T06:44:59.986Z,25.55
2022-11-22T06:47:26.308Z,19.67
2022-11-22T06:49:52.620Z,24.08
2022-11-22T06:52:18.998Z,20.38
2022-11-22T06:54:45.335Z,16.13
2022-11-22T06:57:14.891Z,17.40
2022-11-22T06:59:41.191Z,15.98
2022-11-22T07:02:10.747Z,18.05
2022-11-22T07:04:46.624Z,21.60
2022-11-22T07:07:22.641Z,19.02
2022-11-22T07:09:52.163Z,16.85
2022-11-22T07:12:22.523Z,20.73
2022-11-22T07:14:48.847Z,18.83
2022-11-22T07:17:15.123Z,24.10
2022-11-22T07:19:41.475Z,21.60
2022-11-22T07:22:07.758Z,17.67
2022-11-22T07:24:34.096Z,17.27
2022-11-22T07:27:00.539Z,20.00
2022-11-22T07:29:27.123Z,15.10
2022-11-22T07:31:53.729Z,16.50
2022-11-22T07:34:20.006Z,22.98
2022-11-22T07:36:46.347Z,21.90
2022-11-22T07:39:12.820Z,17.70
2022-11-22T07:41:39.234Z,20.00
2022-11-22T07:44:05.563Z,16.85
2022-11-22T07:46:33.025Z,23.73
2022-11-22T07:49:00.440Z,20.13
2022-11-22T07:51:27.030Z,18.42
2022-11-22T07:53:54.114Z,16.48
2022-11-22T07:56:20.456Z,18.65
2022-11-22T07:58:46.829Z,18.77
2022-11-22T08:01:14.324Z,17.75
2022-11-22T08:03:40.833Z,16.27
2022-11-22T08:06:09.004Z,18.08
2022-11-22T08:08:35.551Z,19.73
2022-11-22T08:11:01.968Z,15.68
2022-11-22T08:13:28.804Z,15.80
2022-11-22T08:16:05.045Z,15.35
2022-11-22T08:18:32.119Z,19.20
2022-11-22T08:21:18.084Z,22.08
2022-11-22T08:23:44.910Z,18.42
2022-11-22T08:26:12.825Z,13.90
2022-11-22T08:28:39.607Z,13.77
2022-11-22T08:31:08.482Z,14.88
2022-11-22T08:33:35.083Z,11.73
2022-11-22T08:36:01.681Z,19.25
2022-11-22T08:38:28.310Z,13.27
2022-11-22T08:40:54.826Z,12.05
2022-11-22T08:43:21.233Z,14.65
2022-11-22T08:45:54.813Z,15.43
2022-11-22T08:48:22.564Z,14.10
2022-11-22T08:50:50.043Z,14.02
2022-11-22T08:53:16.724Z,15.13
2022-11-22T08:55:43.006Z,19.58
2022-11-22T08:58:09.368Z,18.80
2022-11-22T09:00:35.784Z,8.88
2022-11-22T09:03:02.133Z,14.65
2022-11-22T09:05:28.549Z,15.27
2022-11-22T09:10:41.257Z,10.07
2022-11-22T09:13:07.567Z,7.00
2022-11-22T09:15:34.152Z,17.73
2022-11-22T09:18:03.889Z,10.05
2022-11-22T09:20:30.240Z,10.75
2022-11-22T09:22:56.535Z,12.32
2022-11-22T09:25:22.900Z,10.90
2022-11-22T09:27:49.255Z,10.80
2022-11-22T09:30:15.615Z,10.23
2022-11-22T09:32:43.110Z,11.65
2022-11-22T09:35:09.443Z,9.88
2022-11-22T09:37:35.801Z,8.73
2022-11-22T09:40:02.178Z,11.43
2022-11-22T09:42:44.463Z,10.77
2022-11-22T09:45:10.790Z,13.20
2022-11-22T09:47:40.129Z,8.00
2022-11-22T09:50:12.745Z,12.55
2022-11-22T09:53:01.544Z,13.93
2022-11-22T09:55:51.415Z,8.75
2022-11-22T09:58:32.162Z,5.40
2022-11-22T10:01:05.268Z,11.82
2022-11-22T10:03:37.771Z,9.10
2022-11-22T10:06:07.027Z,9.30
2022-11-22T10:08:48.731Z,8.82
2022-11-22T10:11:23.563Z,8.07
2022-11-22T10:13:56.423Z,8.48
2022-11-22T10:16:30.378Z,7.50
2022-11-22T10:19:00.701Z,8.55
2022-11-22T10:21:27.171Z,10.38
2022-11-22T10:23:53.833Z,10.73
2022-11-22T10:26:23.353Z,8.43
2022-11-22T10:29:05.024Z,7.47
2022-11-22T10:31:38.063Z,9.65
2022-11-22T10:34:09.144Z,10.70
2022-11-22T10:36:46.740Z,12.20
2022-11-22T10:39:19.198Z,11.57
2022-11-22T10:42:09.915Z,9.90
2022-11-22T10:45:02.318Z,9.40
2022-11-22T10:47:42.898Z,10.18
2022-11-22T10:50:28.028Z,11.10
2022-11-22T10:53:03.691Z,7.97
2022-11-22T10:55:29.949Z,9.52
2022-11-22T10:58:06.423Z,8.65
2022-11-22T11:00:34.855Z,7.63
2022-11-22T11:03:09.495Z,9.85
2022-11-22T11:09:36.218Z,10.20
2022-11-22T11:11:31.949Z,8.13
2022-11-22T11:14:00.882Z,10.70
2022-11-22T11:16:30.452Z,10.05
2022-11-22T11:19:00.500Z,9.45
2022-11-22T11:21:26.936Z,7.97
2022-11-22T11:23:53.260Z,9.40
2022-11-22T11:26:19.570Z,5.30
2022-11-22T11:28:46.243Z,12.98
2022-11-22T11:31:13.643Z,12.38
2022-11-22T11:33:41.231Z,10.25
2022-11-22T11:36:07.683Z,10.27
2022-11-22T11:38:48.358Z,18.50
2022-11-22T11:41:22.506Z,8.43
2022-11-22T11:43:50.551Z,14.07
2022-11-22T11:46:18.411Z,11.82
2022-11-22T11:48:45.048Z,11.52
2022-11-22T11:51:14.643Z,9.32
2022-11-22T11:53:42.888Z,9.45
2022-11-22T11:56:27.748Z,12.38
2022-11-22T11:58:56.069Z,15.05
2022-11-22T12:01:23.427Z,9.60
2022-11-22T12:03:50.958Z,11.27
2022-11-22T12:06:17.303Z,12.43
2022-11-22T12:08:43.739Z,11.73
2022-11-22T12:11:13.664Z,9.60
2022-11-22T12:14:04.713Z,14.45
2022-11-22T12:16:28.766Z,11.27
2022-11-22T12:19:14.227Z,11.82
2022-11-22T12:21:43.599Z,14.07
2022-11-22T12:27:02.534Z,10.75
2022-11-22T12:29:29.715Z,12.27
2022-11-22T12:31:59.487Z,9.20
2022-11-22T12:34:25.856Z,8.27
2022-11-22T12:36:52.159Z,13.63
2022-11-22T12:39:21.016Z,10.55
2022-11-22T12:41:48.817Z,10.25
2022-11-22T12:44:19.548Z,9.23
2022-11-22T12:46:48.819Z,10.75
2022-11-22T12:49:27.260Z,10.25
2022-11-22T12:51:59.937Z,9.90
2022-11-22T12:54:37.986Z,6.53
2022-11-22T12:57:17.873Z,9.23
2022-11-22T12:59:48.281Z,13.45
2022-11-22T13:02:18.217Z,17.02
2022-11-22T13:04:54.305Z,9.98
2022-11-22T13:07:32.927Z,9.23
2022-11-22T13:10:02.986Z,10.25
2022-11-22T13:12:34.409Z,9.55
2022-11-22T13:15:01.719Z,12.57
2022-11-22T13:17:32.406Z,14.65
2022-11-22T13:20:04.879Z,11.02
2022-11-22T13:22:40.572Z,9.45
2022-11-22T13:25:19.204Z,8.07
2022-11-22T13:27:50.075Z,10.18
2022-11-22T13:30:20.514Z,7.63
2022-11-22T13:32:52.092Z,8.30
2022-11-22T13:35:37.704Z,12.45
2022-11-22T13:38:13.320Z,11.40
2022-11-22T13:40:47.067Z,9.15
2022-11-22T13:43:17.960Z,8.63
2022-11-22T13:45:47.680Z,9.15
2022-11-22T13:48:14.455Z,6.43
2022-11-22T13:50:40.780Z,16.30
2022-11-22T13:53:19.434Z,9.00
2022-11-22T13:55:46.499Z,7.43
2022-11-22T13:58:25.383Z,9.75
2022-11-22T14:00:51.792Z,8.13
2022-11-22T14:03:21.133Z,10.38
2022-11-22T14:05:48.703Z,7.85
2022-11-22T14:08:29.609Z,7.28
2022-11-22T14:10:55.913Z,5.00
2022-11-22T14:13:48.158Z,6.72
2022-11-22T14:16:18.903Z,8.68
2022-11-22T14:18:54.740Z,9.52
2022-11-22T14:21:21.061Z,11.13
2022-11-22T14:23:50.502Z,10.88
2022-11-22T14:26:19.863Z,9.93
2022-11-22T14:28:55.382Z,11.02
2022-11-22T14:31:32.817Z,8.10
2022-11-22T14:34:18.034Z,6.40
2022-11-22T14:36:45.155Z,7.72
2022-11-22T14:39:33.684Z,6.18
2022-11-22T14:42:00.404Z,10.57
2022-11-22T14:44:31.898Z,6.43
2022-11-22T14:47:02.838Z,7.97
2022-11-22T14:49:44.149Z,8.30
2022-11-22T14:52:16.911Z,6.00
2022-11-22T14:54:46.553Z,10.05
2022-11-22T14:57:16.766Z,9.20
2022-11-22T14:59:52.196Z,6.70
2022-11-22T15:02:37.395Z,6.05
2022-11-22T15:09:10.056Z,4.78
2022-11-22T15:09:19.187Z,7.40
2022-11-22T15:11:07.208Z,8.40
2022-11-22T15:13:33.499Z,7.88
2022-11-22T15:58:45.039Z,5.47
2022-11-22T16:01:19.801Z,2.70
2022-11-22T16:03:51.684Z,4.43
2022-11-22T16:06:19.553Z,5.93
2022-11-22T16:08:49.678Z,6.55
2022-11-22T16:11:24.505Z,7.88
2022-11-22T16:13:50.901Z,3.97
2022-11-22T16:16:19.274Z,6.55
2022-11-22T16:18:46.138Z,5.13
2022-11-22T16:21:12.497Z,3.92
2022-11-22T16:23:39.522Z,7.72
2022-11-22T16:26:12.424Z,5.32
2022-11-22T16:28:38.883Z,5.05
2022-11-22T16:31:07.127Z,5.13
2022-11-22T16:33:33.706Z,3.08
2022-11-22T16:36:00.819Z,5.68
2022-11-22T16:38:27.664Z,6.10
2022-11-22T16:40:55.741Z,3.17
2022-11-22T16:43:23.059Z,5.88
2022-11-22T16:45:49.998Z,9.85
2022-11-22T16:48:31.492Z,4.03
2022-11-22T16:51:01.575Z,4.95
2022-11-22T16:53:33.997Z,5.40
2022-11-22T16:56:01.355Z,8.07
2022-11-22T16:58:28.324Z,5.95
2022-11-22T17:00:55.463Z,4.97
2022-11-22T17:03:22.940Z,6.22
2022-11-22T17:05:49.230Z,2.72
2022-11-22T17:08:16.532Z,4.22
2022-11-22T17:10:52.284Z,8.30
2022-11-22T17:13:25.274Z,5.22
2022-11-22T17:15:52.400Z,7.00
2022-11-22T17:18:18.708Z,5.88
2022-11-22T17:20:45.076Z,4.20
2022-11-22T17:23:25.213Z,5.15
2022-11-22T17:25:51.625Z,7.35
2022-11-22T17:28:17.903Z,4.70
2022-11-22T17:30:44.261Z,4.22
2022-11-22T17:33:11.234Z,4.38
2022-11-22T17:35:38.311Z,5.32
2022-11-22T17:38:05.336Z,5.40
2022-11-22T17:40:31.706Z,4.80
2022-11-22T17:42:58.344Z,3.63
2022-11-22T17:45:24.676Z,6.15
2022-11-22T17:47:51.328Z,6.70
2022-11-22T17:50:17.696Z,10.35
2022-11-22T17:52:44.068Z,7.25
2022-11-22T17:55:14.241Z,4.95
2022-11-22T17:57:41.234Z,5.10
2022-11-22T18:00:07.985Z,4.75
2022-11-22T18:02:34.760Z,7.10
2022-11-22T18:05:04.426Z,5.05
2022-11-22T18:07:30.975Z,4.72
2022-11-22T18:09:57.381Z,6.57
2022-11-22T18:12:23.709Z,6.07
2022-11-22T18:14:50.125Z,6.10
2022-11-22T18:17:16.539Z,8.60
2022-11-22T18:19:43.600Z,6.57
2022-11-22T18:22:10.460Z,4.78
2022-11-22T18:24:36.809Z,7.07
2022-11-22T18:27:03.228Z,7.95
2022-11-22T18:29:44.846Z,8.65
2022-11-22T18:32:11.506Z,7.47
2022-11-22T18:34:37.901Z,8.65
2022-11-22T18:37:05.128Z,7.80
2022-11-22T18:39:36.844Z,10.50
2022-11-22T18:42:04.885Z,9.90
2022-11-22T18:44:31.437Z,10.23
2022-11-22T18:46:57.772Z,11.52
2022-11-22T18:49:24.103Z,8.80
2022-11-22T18:51:50.425Z,10.50
2022-11-22T18:54:17.997Z,11.57
2022-11-22T18:56:44.339Z,9.05
2022-11-22T18:59:12.572Z,9.95
2022-11-22T19:01:39.363Z,8.63
2022-11-22T19:04:05.759Z,10.48
2022-11-22T19:06:32.149Z,12.07
2022-11-22T19:08:58.652Z,14.48
2022-11-22T19:11:25.278Z,16.52
2022-11-22T19:13:51.675Z,14.45
2022-11-22T19:16:21.163Z,15.98
2022-11-22T19:18:48.033Z,16.75
2022-11-22T19:21:16.377Z,16.02
2022-11-22T19:23:43.143Z,16.20
2022-11-22T19:26:14.104Z,16.92
2022-11-22T19:28:41.301Z,19.83
2022-11-22T19:31:10.173Z,16.90
2022-11-22T19:33:36.848Z,20.70
2022-11-22T19:36:04.709Z,16.60
2022-11-22T19:38:32.304Z,15.10
2022-11-22T19:40:58.763Z,14.50
2022-11-22T19:43:25.329Z,15.80
2022-11-22T19:45:51.720Z,17.17
2022-11-22T19:48:18.494Z,15.45
2022-11-22T19:50:44.996Z,16.10
2022-11-22T19:53:11.543Z,15.35
2022-11-22T19:55:43.590Z,14.82
2022-11-22T19:58:11.703Z,14.80
2022-11-22T20:00:38.059Z,12.93
2022-11-22T20:03:04.807Z,16.88
2022-11-22T20:05:32.147Z,17.92
2022-11-22T20:07:59.125Z,17.73
2022-11-22T20:10:25.532Z,16.13
2022-11-22T20:12:51.831Z,16.17
2022-11-22T20:15:18.688Z,19.52
2022-11-22T20:17:45.076Z,15.75
2022-11-22T20:20:11.472Z,17.35
2022-11-22T20:22:37.835Z,15.05
2022-11-22T20:25:05.752Z,15.40
2022-11-22T20:27:32.198Z,16.48
2022-11-22T20:30:01.128Z,14.10
2022-11-22T20:32:28.583Z,16.58
2022-11-22T20:34:54.906Z,21.48
2022-11-22T20:37:21.316Z,17.83
2022-11-22T20:39:47.607Z,20.90
2022-11-22T20:42:34.829Z,17.38
2022-11-22T20:45:00.391Z,18.60
2022-11-22T20:47:26.743Z,20.45
2022-11-22T20:49:53.055Z,20.33
2022-11-22T20:52:19.916Z,18.23
2022-11-22T20:54:46.236Z,22.20
2022-11-22T20:57:12.598Z,18.83
2022-11-22T20:59:38.912Z,17.73
2022-11-22T21:02:09.245Z,18.40
2022-11-22T21:04:35.962Z,21.77
2022-11-22T21:07:02.283Z,22.70
2022-11-22T21:09:28.759Z,24.13
2022-11-22T21:11:55.076Z,20.58
2022-11-22T21:14:21.422Z,19.30
2022-11-22T21:16:47.792Z,18.95
2022-11-22T21:19:14.908Z,25.75
2022-11-22T21:21:41.286Z,22.65
2022-11-22T21:24:07.810Z,20.63
2022-11-22T21:26:34.220Z,20.77
2022-11-22T21:29:00.715Z,23.20
2022-11-22T21:31:27.697Z,20.48
2022-11-22T21:33:54.224Z,18.73
2022-11-22T21:36:21.080Z,20.25
2022-11-22T21:38:47.427Z,22.33
2022-11-22T21:44:02.504Z,20.08
2022-11-22T21:46:28.849Z,21.63
2022-11-22T21:48:55.731Z,19.13
2022-11-22T21:51:23.097Z,19.73
2022-11-22T21:53:49.453Z,20.52
2022-11-22T21:56:15.884Z,26.30
2022-11-22T21:58:42.245Z,21.55
2022-11-22T22:01:13.819Z,19.52
2022-11-22T22:03:40.801Z,20.92
2022-11-22T22:06:07.508Z,21.98
2022-11-22T22:08:34.027Z,27.02
2022-11-22T22:11:02.407Z,24.60
2022-11-22T22:13:30.745Z,17.92
2022-11-22T22:15:58.192Z,22.58
2022-11-22T22:18:29.433Z,24.20
2022-11-22T22:21:02.893Z,22.83
2022-11-22T22:23:29.551Z,21.80
2022-11-22T22:26:00.043Z,24.27
2022-11-22T22:28:29.905Z,25.08
2022-11-22T22:31:04.493Z,25.25
2022-11-22T22:33:30.791Z,24.67
2022-11-22T22:35:57.583Z,19.65
2022-11-22T22:38:23.916Z,27.73
2022-11-22T22:40:54.467Z,25.35
2022-11-22T22:43:21.492Z,24.20
2022-11-22T22:45:47.900Z,27.23
2022-11-22T22:48:14.252Z,24.77
2022-11-22T22:50:40.645Z,29.45
2022-11-22T22:53:06.958Z,33.10
2022-11-22T22:55:33.272Z,24.45
2022-11-22T22:58:00.045Z,30.65
2022-11-22T23:00:26.409Z,26.17
2022-11-22T23:02:53.155Z,27.52
2022-11-22T23:05:19.525Z,25.95
2022-11-22T23:07:45.831Z,30.08
2022-11-22T23:10:12.203Z,31.70
2022-11-22T23:12:38.547Z,26.35
2022-11-22T23:15:05.228Z,26.65
2022-11-22T23:17:31.643Z,30.45
2022-11-22T23:19:57.965Z,27.48
2022-11-22T23:22:26.023Z,25.60
2022-11-22T23:24:52.619Z,29.33
2022-11-22T23:27:19.031Z,23.65
2022-11-22T23:29:45.335Z,29.67
2022-11-22T23:32:11.614Z,25.88
2022-11-22T23:34:37.918Z,24.65
2022-11-22T23:37:04.237Z,26.58
2022-11-22T23:39:30.781Z,23.27
2022-11-22T23:41:57.263Z,25.92
2022-11-22T23:44:23.866Z,26.70
2022-11-22T23:46:50.171Z,26.38
2022-11-22T23:49:16.510Z,23.60
2022-11-22T23:51:42.872Z,23.58
2022-11-22T23:54:10.196Z,23.60
2022-11-22T23:56:37.047Z,22.70
2022-11-22T23:59:04.988Z,22.38
